createdAt,value
2018-11-21T00:01:22.828Z,19.80
2018-11-21T00:03:51.681Z,21.33
2018-11-21T00:06:20.520Z,20.37
2018-11-21T00:08:49.360Z,23.57
2018-11-21T00:11:18.212Z,23.43
2018-11-21T00:13:47.059Z,23.20
2018-11-21T00:16:15.893Z,22.80
2018-11-21T00:18:44.747Z,22.53
2018-11-21T00:21:13.587Z,23.70
2018-11-21T00:23:42.438Z,21.97
2018-11-21T00:26:11.295Z,21.97
2018-11-21T00:28:40.879Z,21.23
2018-11-21T00:31:09.717Z,20.97
2018-11-21T00:33:38.545Z,21.37
2018-11-21T00:45:09.627Z,25.03
2018-11-21T00:47:38.467Z,22.30
2018-11-21T00:50:07.337Z,24.47
2018-11-21T00:52:36.134Z,24.47
2018-11-21T00:55:05.714Z,27.03
2018-11-21T00:57:34.541Z,24.77
2018-11-21T01:00:04.129Z,25.93
2018-11-21T01:02:33.705Z,24.33
2018-11-21T01:05:02.532Z,26.33
2018-11-21T01:07:32.099Z,23.40
2018-11-21T01:10:00.927Z,23.70
2018-11-21T01:12:29.760Z,24.20
2018-11-21T01:14:58.591Z,25.58
2018-11-21T01:17:28.254Z,25.52
2018-11-21T01:19:57.781Z,22.20
2018-11-21T01:22:26.607Z,23.40
2018-11-21T01:24:56.185Z,23.00
2018-11-21T01:27:25.030Z,22.63
2018-11-21T01:29:53.871Z,24.87
2018-11-21T01:32:22.714Z,22.53
2018-11-21T01:34:51.549Z,23.47
2018-11-21T01:37:20.414Z,21.37
2018-11-21T01:39:49.259Z,25.65
2018-11-21T01:42:18.100Z,23.27
2018-11-21T01:44:46.938Z,23.13
2018-11-21T01:47:15.787Z,23.33
2018-11-21T01:49:44.629Z,23.10
2018-11-21T01:52:13.469Z,22.97
2018-11-21T01:54:42.336Z,22.90
2018-11-21T01:57:11.178Z,21.87
2018-11-21T01:59:40.759Z,22.87
2018-11-21T02:02:09.597Z,24.13
2018-11-21T02:04:38.438Z,23.60
2018-11-21T02:07:07.298Z,22.53
2018-11-21T02:09:36.150Z,25.17
2018-11-21T02:12:05.000Z,23.00
2018-11-21T02:14:33.851Z,23.13
2018-11-21T02:17:02.670Z,24.85
2018-11-21T02:19:31.495Z,23.23
2018-11-21T02:22:00.334Z,23.57
2018-11-21T02:24:29.210Z,22.27
2018-11-21T02:26:58.026Z,23.80
2018-11-21T02:29:26.856Z,26.57
2018-11-21T02:31:56.439Z,24.57
2018-11-21T02:34:25.256Z,23.23
2018-11-21T02:36:54.244Z,24.50
2018-11-21T02:39:22.917Z,25.33
2018-11-21T02:41:52.477Z,23.47
2018-11-21T02:44:21.308Z,26.13
2018-11-21T02:46:50.189Z,25.03
2018-11-21T02:49:18.996Z,27.80
2018-11-21T02:51:48.567Z,25.33
2018-11-21T02:54:17.381Z,22.97
2018-11-21T02:57:03.841Z,23.33
2018-11-21T02:59:32.694Z,23.93
2018-11-21T03:02:01.522Z,22.60
2018-11-21T03:04:30.352Z,23.53
2018-11-21T03:06:59.930Z,22.70
2018-11-21T03:09:28.763Z,26.30
2018-11-21T03:11:57.593Z,26.08
2018-11-21T03:14:26.413Z,25.67
2018-11-21T03:16:55.249Z,22.97
2018-11-21T03:19:24.073Z,22.53
2018-11-21T03:21:52.903Z,24.00
2018-11-21T03:24:21.725Z,25.55
2018-11-21T03:26:50.560Z,23.53
2018-11-21T03:29:20.130Z,24.00
2018-11-21T03:31:48.944Z,22.07
2018-11-21T03:34:18.361Z,22.93
2018-11-21T03:36:47.934Z,25.23
2018-11-21T03:39:16.762Z,26.67
2018-11-21T03:41:46.325Z,25.00
2018-11-21T03:44:15.173Z,24.43
2018-11-21T03:46:43.995Z,22.67
2018-11-21T03:49:12.816Z,24.47
2018-11-21T03:51:42.389Z,24.27
2018-11-21T03:54:11.216Z,23.90
2018-11-21T03:56:40.802Z,24.40
2018-11-21T03:59:09.620Z,23.73
2018-11-21T04:01:38.497Z,22.30
2018-11-21T04:04:07.296Z,24.73
2018-11-21T04:06:36.860Z,24.63
2018-11-21T04:09:05.691Z,25.17
2018-11-21T04:11:34.529Z,24.37
2018-11-21T04:14:03.393Z,22.90
2018-11-21T04:16:32.225Z,23.40
2018-11-21T04:19:01.058Z,23.03
2018-11-21T04:21:29.898Z,25.73
2018-11-21T04:23:58.724Z,24.47
2018-11-21T04:26:28.314Z,23.60
2018-11-21T04:28:57.152Z,26.03
2018-11-21T04:31:25.977Z,22.07
2018-11-21T04:33:54.819Z,25.20
2018-11-21T04:36:23.649Z,25.53
2018-11-21T04:38:52.475Z,26.23
2018-11-21T04:41:22.042Z,25.43
2018-11-21T04:43:51.625Z,29.80
2018-11-21T04:46:20.511Z,26.63
2018-11-21T04:48:49.272Z,26.43
2018-11-21T04:51:18.108Z,26.70
2018-11-21T04:53:46.940Z,25.27
2018-11-21T04:56:15.786Z,24.80
2018-11-21T04:58:44.634Z,28.80
2018-11-21T05:01:14.202Z,24.40
2018-11-21T05:03:43.049Z,23.77
2018-11-21T05:06:11.902Z,26.48
2018-11-21T05:08:40.738Z,24.13
2018-11-21T05:11:09.574Z,24.20
2018-11-21T05:13:39.145Z,24.20
2018-11-21T05:16:08.004Z,26.08
2018-11-21T05:18:37.537Z,22.63
2018-11-21T05:21:06.367Z,23.60
2018-11-21T05:23:35.201Z,24.23
2018-11-21T05:26:04.029Z,27.15
2018-11-21T05:28:32.879Z,26.23
2018-11-21T05:31:01.718Z,24.77
2018-11-21T05:33:31.294Z,24.80
2018-11-21T05:36:00.150Z,26.53
2018-11-21T05:38:28.985Z,26.75
2018-11-21T05:40:57.813Z,26.73
2018-11-21T05:43:26.654Z,26.10
2018-11-21T05:45:55.488Z,27.83
2018-11-21T05:48:24.339Z,28.63
2018-11-21T05:50:53.180Z,26.50
2018-11-21T05:53:22.012Z,27.97
2018-11-21T05:55:50.844Z,25.77
2018-11-21T05:58:19.885Z,27.77
2018-11-21T06:00:49.230Z,28.40
2018-11-21T06:03:18.304Z,26.97
2018-11-21T06:05:47.128Z,28.03
2018-11-21T06:08:15.961Z,25.87
2018-11-21T06:10:44.827Z,28.03
2018-11-21T06:13:14.365Z,28.07
2018-11-21T06:15:43.197Z,28.43
2018-11-21T06:18:12.050Z,27.37
2018-11-21T06:20:40.896Z,26.90
2018-11-21T06:23:09.727Z,30.60
2018-11-21T06:25:39.158Z,27.73
2018-11-21T06:28:08.734Z,32.47
2018-11-21T06:30:38.308Z,30.87
2018-11-21T06:33:07.150Z,29.37
2018-11-21T06:35:35.987Z,29.73
2018-11-21T06:38:04.824Z,31.15
2018-11-21T06:40:34.391Z,28.70
2018-11-21T06:43:04.744Z,30.07
2018-11-21T06:45:32.608Z,27.87
2018-11-21T06:48:01.448Z,27.83
2018-11-21T06:50:30.280Z,29.60
2018-11-21T06:52:59.140Z,27.10
2018-11-21T06:55:27.960Z,29.37
2018-11-21T06:57:56.794Z,27.00
2018-11-21T07:00:25.614Z,25.03
2018-11-21T07:02:54.469Z,25.67
2018-11-21T07:05:23.293Z,28.37
2018-11-21T07:07:52.118Z,26.43
2018-11-21T07:10:21.687Z,26.93
2018-11-21T07:12:50.527Z,25.70
2018-11-21T07:15:20.100Z,26.07
2018-11-21T07:17:48.916Z,28.17
2018-11-21T07:20:17.739Z,28.60
2018-11-21T07:22:46.572Z,37.87
2018-11-21T07:25:15.526Z,31.80
2018-11-21T07:27:44.253Z,34.15
2018-11-21T07:30:13.103Z,29.77
2018-11-21T07:32:41.959Z,31.75
2018-11-21T07:35:10.825Z,30.27
2018-11-21T07:37:39.618Z,28.30
2018-11-21T07:40:09.194Z,30.83
2018-11-21T07:42:38.026Z,31.75
2018-11-21T07:45:07.596Z,29.50
2018-11-21T07:47:36.453Z,28.57
2018-11-21T07:50:05.288Z,30.47
2018-11-21T07:52:34.117Z,29.57
2018-11-21T07:55:02.951Z,30.63
2018-11-21T07:57:31.781Z,29.23
2018-11-21T08:00:13.093Z,29.77
2018-11-21T08:02:41.926Z,32.67
2018-11-21T08:05:10.751Z,33.70
2018-11-21T08:07:39.572Z,29.73
2018-11-21T08:10:08.408Z,32.63
2018-11-21T08:12:37.235Z,32.30
2018-11-21T08:15:06.081Z,31.77
2018-11-21T08:17:35.645Z,32.73
2018-11-21T08:20:04.494Z,31.93
2018-11-21T08:22:34.066Z,31.87
2018-11-21T08:25:02.894Z,31.40
2018-11-21T08:27:31.725Z,33.63
2018-11-21T08:30:00.560Z,33.03
2018-11-21T08:32:29.397Z,34.93
2018-11-21T08:34:58.407Z,38.57
2018-11-21T08:37:27.235Z,31.87
2018-11-21T08:39:56.070Z,34.97
2018-11-21T08:42:24.900Z,32.83
2018-11-21T08:44:54.479Z,33.43
2018-11-21T08:47:23.304Z,32.83
2018-11-21T08:49:52.136Z,35.30
2018-11-21T08:52:20.971Z,33.63
2018-11-21T08:54:49.801Z,34.17
2018-11-21T08:57:18.629Z,38.00
2018-11-21T08:59:47.453Z,33.33
2018-11-21T09:02:16.290Z,33.00
2018-11-21T09:04:45.112Z,37.57
2018-11-21T09:07:14.689Z,32.70
2018-11-21T09:09:43.507Z,33.23
2018-11-21T09:12:15.391Z,36.93
2018-11-21T09:14:41.943Z,35.80
2018-11-21T09:17:10.779Z,37.40
2018-11-21T09:19:39.623Z,34.00
2018-11-21T09:22:08.453Z,40.22
2018-11-21T09:24:37.286Z,34.50
2018-11-21T09:27:06.110Z,33.83
2018-11-21T09:29:35.002Z,37.43
2018-11-21T09:32:03.821Z,38.77
2018-11-21T09:34:32.659Z,36.60
2018-11-21T09:37:01.490Z,39.70
2018-11-21T09:39:30.326Z,35.17
2018-11-21T09:41:59.163Z,38.88
2018-11-21T09:44:27.995Z,34.57
2018-11-21T09:46:56.832Z,31.80
2018-11-21T09:49:26.401Z,32.77
2018-11-21T09:51:55.237Z,33.97
2018-11-21T09:54:24.080Z,32.87
2018-11-21T09:56:52.919Z,33.53
2018-11-21T09:59:23.113Z,32.00
2018-11-21T10:02:09.133Z,31.30
2018-11-21T10:04:38.714Z,33.63
2018-11-21T10:07:07.537Z,34.83
2018-11-21T10:09:37.116Z,31.07
2018-11-21T10:12:05.948Z,30.27
2018-11-21T10:14:34.791Z,32.57
2018-11-21T10:17:03.624Z,33.17
2018-11-21T10:19:32.467Z,29.80
2018-11-21T10:22:01.300Z,31.63
2018-11-21T10:24:30.145Z,28.03
2018-11-21T10:26:58.960Z,26.93
2018-11-21T10:29:27.797Z,29.03
2018-11-21T10:31:56.632Z,28.65
2018-11-21T10:34:25.483Z,30.60
2018-11-21T10:36:54.304Z,28.93
2018-11-21T10:39:23.155Z,29.60
2018-11-21T10:41:52.005Z,30.48
2018-11-21T10:44:20.835Z,27.23
2018-11-21T10:46:49.679Z,27.83
2018-11-21T10:49:18.527Z,25.40
2018-11-21T10:51:47.357Z,24.77
2018-11-21T10:54:16.195Z,24.33
2018-11-21T10:56:45.049Z,23.17
2018-11-21T10:59:13.859Z,25.37
2018-11-21T11:01:42.708Z,24.40
2018-11-21T11:04:12.280Z,23.97
2018-11-21T11:06:41.187Z,23.90
2018-11-21T11:09:10.069Z,25.80
2018-11-21T11:11:38.893Z,29.23
2018-11-21T11:14:07.728Z,25.57
2018-11-21T11:16:36.575Z,25.57
2018-11-21T11:19:05.397Z,23.53
2018-11-21T11:21:34.230Z,24.70
2018-11-21T11:24:03.088Z,22.87
2018-11-21T11:26:31.925Z,24.42
2018-11-21T11:29:00.753Z,24.03
2018-11-21T11:31:29.593Z,22.30
2018-11-21T11:33:59.159Z,23.17
2018-11-21T11:36:27.997Z,23.97
2018-11-21T11:38:57.573Z,22.10
2018-11-21T11:41:26.417Z,22.27
2018-11-21T11:43:55.245Z,23.08
2018-11-21T11:46:24.108Z,20.97
2018-11-21T11:48:52.946Z,73.70
2018-11-21T11:51:21.795Z,22.97
2018-11-21T11:53:50.629Z,22.02
2018-11-21T11:56:19.477Z,20.87
2018-11-21T11:58:48.318Z,19.77
2018-11-21T12:03:48.984Z,20.43
2018-11-21T12:06:17.814Z,21.75
2018-11-21T12:08:46.814Z,20.57
2018-11-21T12:11:16.223Z,19.07
2018-11-21T12:13:45.105Z,19.30
2018-11-21T12:16:13.895Z,18.97
2018-11-21T12:18:42.729Z,19.17
2018-11-21T12:21:11.550Z,21.00
2018-11-21T12:23:40.395Z,21.00
2018-11-21T12:26:10.500Z,20.87
2018-11-21T12:28:38.068Z,20.67
2018-11-21T12:31:06.894Z,19.00
2018-11-21T12:33:35.724Z,20.77
2018-11-21T12:36:04.579Z,21.03
2018-11-21T12:38:33.414Z,19.23
2018-11-21T12:41:02.275Z,20.30
2018-11-21T12:43:31.098Z,22.23
2018-11-21T12:45:59.925Z,20.30
2018-11-21T12:48:28.775Z,19.57
2018-11-21T12:50:57.616Z,19.53
2018-11-21T12:53:26.440Z,20.75
2018-11-21T12:55:56.017Z,21.30
2018-11-21T12:58:24.871Z,21.57
2018-11-21T13:00:53.723Z,20.37
2018-11-21T13:03:22.571Z,20.37
2018-11-21T13:05:51.398Z,18.83
2018-11-21T13:08:20.240Z,18.77
2018-11-21T13:10:49.078Z,20.65
2018-11-21T13:13:17.921Z,18.53
2018-11-21T13:15:46.753Z,19.20
2018-11-21T13:18:15.586Z,18.23
2018-11-21T13:20:44.417Z,18.37
2018-11-21T13:23:13.267Z,17.47
2018-11-21T13:25:42.120Z,18.57
2018-11-21T13:28:10.966Z,18.87
2018-11-21T13:30:39.794Z,18.92
2018-11-21T13:33:09.375Z,18.50
2018-11-21T13:35:38.212Z,18.83
2018-11-21T13:38:07.057Z,17.53
2018-11-21T13:40:35.906Z,17.57
2018-11-21T13:43:04.741Z,22.90
2018-11-21T13:45:33.599Z,18.97
2018-11-21T13:48:02.434Z,18.43
2018-11-21T13:50:34.284Z,17.67
2018-11-21T13:53:00.160Z,18.15
2018-11-21T13:55:28.989Z,17.10
2018-11-21T13:57:57.842Z,16.40
2018-11-21T14:00:26.691Z,18.50
2018-11-21T14:02:56.271Z,17.67
2018-11-21T14:05:25.123Z,17.50
2018-11-21T14:07:53.977Z,18.42
2018-11-21T14:10:23.545Z,17.97
2018-11-21T14:12:52.386Z,16.63
2018-11-21T14:15:21.236Z,16.20
2018-11-21T14:17:50.062Z,16.70
2018-11-21T14:20:18.904Z,16.93
2018-11-21T14:22:47.740Z,16.10
2018-11-21T14:25:16.591Z,16.10
2018-11-21T14:27:45.867Z,16.10
2018-11-21T14:30:14.276Z,17.30
2018-11-21T14:32:43.364Z,15.73
2018-11-21T14:35:11.954Z,16.40
2018-11-21T14:37:40.819Z,16.27
2018-11-21T14:40:09.658Z,18.08
2018-11-21T14:42:38.512Z,15.90
2018-11-21T14:45:07.346Z,16.33
2018-11-21T14:47:36.192Z,15.40
2018-11-21T14:50:05.050Z,16.27
2018-11-21T14:52:33.904Z,17.25
2018-11-21T14:55:02.731Z,16.43
2018-11-21T14:57:31.569Z,18.37
2018-11-21T15:00:01.155Z,17.63
2018-11-21T15:02:29.996Z,17.23
2018-11-21T15:04:58.830Z,16.60
2018-11-21T15:07:27.673Z,16.97
2018-11-21T15:09:56.516Z,20.37
2018-11-21T15:12:25.352Z,17.80
2018-11-21T15:14:54.263Z,19.12
2018-11-21T15:17:23.098Z,17.80
2018-11-21T15:19:51.941Z,17.93
2018-11-21T15:22:20.810Z,17.97
2018-11-21T15:24:49.654Z,19.43
2018-11-21T15:27:18.486Z,17.67
2018-11-21T15:29:47.332Z,17.63
2018-11-21T15:32:16.910Z,17.07
2018-11-21T15:34:45.761Z,17.70
2018-11-21T15:37:14.596Z,17.87
2018-11-21T15:39:44.021Z,17.93
2018-11-21T15:42:13.611Z,19.80
2018-11-21T15:44:42.446Z,18.87
2018-11-21T15:47:11.290Z,30.37
2018-11-21T15:49:40.137Z,21.97
2018-11-21T15:52:08.970Z,20.90
2018-11-21T15:54:37.800Z,19.37
2018-11-21T15:57:06.640Z,18.83
2018-11-21T15:59:35.509Z,19.20
2018-11-21T16:02:04.347Z,19.00
2018-11-21T16:04:33.191Z,19.03
2018-11-21T16:07:02.028Z,19.08
2018-11-21T16:09:30.919Z,16.97
2018-11-21T16:11:59.715Z,22.83
2018-11-21T16:14:28.566Z,22.90
2018-11-21T16:16:57.405Z,28.13
2018-11-21T16:19:26.265Z,20.40
2018-11-21T16:21:55.102Z,20.23
2018-11-21T16:24:23.938Z,19.63
2018-11-21T16:26:53.514Z,18.43
2018-11-21T16:29:22.345Z,18.40
2018-11-21T16:31:51.933Z,16.73
2018-11-21T16:34:21.360Z,16.90
2018-11-21T16:36:50.929Z,17.63
2018-11-21T16:39:19.775Z,17.70
2018-11-21T16:41:48.610Z,17.97
2018-11-21T16:44:17.430Z,17.83
2018-11-21T16:46:46.269Z,18.10
2018-11-21T16:49:15.110Z,17.17
2018-11-21T16:51:44.678Z,18.37
2018-11-21T16:54:14.246Z,17.97
2018-11-21T16:56:43.100Z,17.57
2018-11-21T16:59:12.656Z,17.97
2018-11-21T17:01:41.486Z,39.40
2018-11-21T17:04:10.328Z,23.90
2018-11-21T17:06:39.182Z,19.67
2018-11-21T17:09:08.745Z,19.30
2018-11-21T17:11:37.598Z,19.83
2018-11-21T17:14:06.434Z,19.13
2018-11-21T17:16:35.266Z,19.17
2018-11-21T17:19:04.131Z,23.60
2018-11-21T17:21:32.960Z,26.20
2018-11-21T17:24:01.792Z,21.03
2018-11-21T17:26:30.681Z,20.13
2018-11-21T17:28:59.510Z,19.97
2018-11-21T17:31:28.364Z,19.63
2018-11-21T17:33:57.180Z,18.73
2018-11-21T17:36:26.041Z,18.87
2018-11-21T17:38:54.873Z,19.60
2018-11-21T17:41:23.699Z,19.57
2018-11-21T17:43:52.534Z,21.67
2018-11-21T17:46:22.194Z,18.97
2018-11-21T17:48:50.955Z,18.80
2018-11-21T17:51:23.199Z,22.25
2018-11-21T17:53:48.631Z,20.40
2018-11-21T17:56:17.465Z,21.17
2018-11-21T17:58:46.340Z,19.50
2018-11-21T18:01:15.172Z,20.67
2018-11-21T18:03:44.019Z,20.63
2018-11-21T18:06:12.848Z,20.60
2018-11-21T18:08:42.434Z,21.27
2018-11-21T18:11:11.270Z,21.67
2018-11-21T18:13:40.198Z,24.00
2018-11-21T18:16:09.069Z,20.70
2018-11-21T18:18:37.943Z,22.13
2018-11-21T18:21:06.773Z,31.37
2018-11-21T18:23:35.615Z,24.83
2018-11-21T18:26:04.453Z,22.07
2018-11-21T18:28:33.306Z,24.77
2018-11-21T18:31:02.160Z,27.40
2018-11-21T18:33:30.985Z,25.07
2018-11-21T18:35:59.821Z,25.33
2018-11-21T18:38:28.669Z,24.13
2018-11-21T18:40:57.501Z,32.28
2018-11-21T18:43:27.562Z,26.17
2018-11-21T18:45:56.402Z,24.57
2018-11-21T18:48:25.240Z,23.07
2018-11-21T18:50:54.076Z,24.60
2018-11-21T18:53:23.502Z,22.87
2018-11-21T18:55:52.352Z,23.98
2018-11-21T18:58:21.179Z,21.80
2018-11-21T19:00:50.765Z,21.70
2018-11-21T19:03:19.614Z,21.27
2018-11-21T19:05:48.452Z,24.87
2018-11-21T19:08:18.033Z,24.83
2018-11-21T19:10:46.862Z,24.77
2018-11-21T19:13:15.689Z,23.10
2018-11-21T19:15:44.527Z,22.93
2018-11-21T19:18:14.107Z,23.80
2018-11-21T19:20:42.966Z,25.57
2018-11-21T19:23:11.801Z,23.17
2018-11-21T19:25:40.655Z,23.50
2018-11-21T19:28:09.497Z,24.05
2018-11-21T19:30:38.335Z,21.20
2018-11-21T19:33:07.184Z,22.90
2018-11-21T19:35:36.104Z,23.37
2018-11-21T19:38:04.851Z,22.80
2018-11-21T19:40:34.442Z,22.83
2018-11-21T19:43:03.288Z,21.77
2018-11-21T19:45:32.113Z,24.40
2018-11-21T19:48:00.957Z,22.20
2018-11-21T19:50:29.786Z,25.40
2018-11-21T19:52:58.676Z,24.90
2018-11-21T19:55:27.530Z,23.67
2018-11-21T19:57:56.361Z,27.53
2018-11-21T20:00:25.203Z,31.07
2018-11-21T20:02:54.060Z,31.97
2018-11-21T20:05:23.644Z,32.43
2018-11-21T20:07:52.481Z,40.23
2018-11-21T20:10:21.322Z,32.77
2018-11-21T20:12:50.179Z,54.43
2018-11-21T20:15:19.035Z,56.08
2018-11-21T20:17:47.873Z,46.27
2018-11-21T20:20:16.723Z,45.20
2018-11-21T20:22:45.560Z,50.90
2018-11-21T20:25:14.397Z,41.77
2018-11-21T20:27:43.244Z,42.13
2018-11-21T20:30:12.082Z,36.47
2018-11-21T20:32:40.932Z,39.37
2018-11-21T20:35:10.583Z,37.00
2018-11-21T20:37:39.370Z,39.00
2018-11-21T20:40:08.533Z,40.60
2018-11-21T20:42:37.367Z,43.27
2018-11-21T20:45:06.196Z,48.30
2018-11-21T20:47:35.021Z,43.50
2018-11-21T20:50:03.871Z,41.27
2018-11-21T20:52:32.726Z,46.30
2018-11-21T20:55:01.565Z,40.08
2018-11-21T20:57:31.165Z,38.07
2018-11-21T21:00:00.005Z,30.83
2018-11-21T21:02:28.838Z,34.17
2018-11-21T21:04:57.684Z,32.10
2018-11-21T21:07:26.529Z,36.97
2018-11-21T21:09:56.114Z,37.57
2018-11-21T21:12:25.695Z,35.70
2018-11-21T21:14:54.543Z,33.15
2018-11-21T21:17:23.427Z,33.63
2018-11-21T21:19:52.264Z,33.47
2018-11-21T21:22:21.092Z,30.93
2018-11-21T21:24:50.666Z,32.97
2018-11-21T21:27:19.507Z,39.00
2018-11-21T21:29:48.352Z,34.03
2018-11-21T21:32:17.187Z,37.87
2018-11-21T21:34:46.020Z,34.00
2018-11-21T21:37:14.911Z,30.47
2018-11-21T21:39:44.686Z,37.73
2018-11-21T21:42:13.525Z,34.97
2018-11-21T21:44:42.372Z,32.73
2018-11-21T21:47:11.196Z,30.30
2018-11-21T21:49:40.048Z,32.60
2018-11-21T21:52:08.876Z,32.17
2018-11-21T21:54:37.712Z,34.90
2018-11-21T21:57:06.580Z,31.83
2018-11-21T21:59:35.451Z,37.53
2018-11-21T22:02:04.252Z,33.20
2018-11-21T22:04:33.680Z,37.53
2018-11-21T22:07:02.525Z,33.43
2018-11-21T22:09:31.360Z,33.47
2018-11-21T22:12:00.217Z,30.90
2018-11-21T22:14:29.065Z,31.43
2018-11-21T22:16:57.892Z,31.77
2018-11-21T22:19:26.728Z,29.63
2018-11-21T22:21:56.288Z,32.13
2018-11-21T22:24:25.101Z,29.57
2018-11-21T22:26:53.961Z,30.97
2018-11-21T22:29:22.804Z,33.35
2018-11-21T22:31:51.630Z,31.27
2018-11-21T22:34:24.516Z,31.80
2018-11-21T22:36:49.297Z,31.37
2018-11-21T22:39:18.120Z,30.23
2018-11-21T22:41:47.724Z,27.93
2018-11-21T22:44:16.558Z,31.87
2018-11-21T22:46:45.402Z,29.87
2018-11-21T22:49:14.993Z,31.30
2018-11-21T22:51:47.583Z,30.17
2018-11-21T22:54:12.647Z,28.93
2018-11-21T22:56:41.474Z,27.83
2018-11-21T22:59:11.046Z,26.40
2018-11-21T23:01:39.882Z,28.17
2018-11-21T23:04:09.463Z,28.33
2018-11-21T23:06:38.885Z,26.70
2018-11-21T23:09:07.717Z,28.07
2018-11-21T23:11:36.542Z,27.17
2018-11-21T23:14:05.371Z,27.33
2018-11-21T23:16:34.219Z,27.33
2018-11-21T23:19:03.084Z,27.70
2018-11-21T23:21:31.913Z,29.05
2018-11-21T23:24:00.761Z,27.27
2018-11-21T23:26:29.604Z,29.40
2018-11-21T23:28:59.175Z,25.67
2018-11-21T23:31:28.005Z,28.13
2018-11-21T23:33:56.848Z,27.70
2018-11-21T23:36:25.671Z,28.27
2018-11-21T23:38:54.566Z,27.37
2018-11-21T23:41:23.401Z,26.40
2018-11-21T23:43:52.259Z,27.17
2018-11-21T23:46:21.815Z,27.47
2018-11-21T23:48:50.646Z,25.60
2018-11-21T23:51:19.473Z,28.17
2018-11-21T23:53:48.307Z,28.47
2018-11-21T23:56:17.881Z,28.73
2018-11-21T23:58:46.714Z,27.70
